sensor_id;sensor_type;location;lat;lon;timestamp;pressure;altitude;pressure_sealevel;temperature;humidity
46876;BME280;32866;50.160;14.768;2022-11-20T00:00:48;99088.16;;;-7.41;100.00
46876;BME280;32866;50.160;14.768;2022-11-20T00:03:14;99100.44;;;-7.28;100.00
46876;BME280;32866;50.160;14.768;2022-11-20T00:05:39;99087.75;;;-7.10;100.00
46876;BME280;32866;50.160;14.768;2022-11-20T00:08:05;99099.31;;;-7.06;100.00
46876;BME280;32866;50.160;14.768;2022-11-20T00:10:30;99089.91;;;-7.03;100.00
46876;BME280;32866;50.160;14.768;2022-11-20T00:12:55;99085.66;;;-7.04;100.00
46876;BME280;32866;50.160;14.768;2022-11-20T00:15:22;99048.06;;;-7.24;100.00
46876;BME280;32866;50.160;14.768;2022-11-20T00:17:47;99083.44;;;-7.02;100.00
46876;BME280;32866;50.160;14.768;2022-11-20T00:20:13;99075.13;;;-7.01;100.00
46876;BME280;32866;50.160;14.768;2022-11-20T00:22:38;99086.16;;;-6.90;100.00
46876;BME280;32866;50.160;14.768;2022-11-20T00:25:04;99086.09;;;-7.02;100.00
46876;BME280;32866;50.160;14.768;2022-11-20T00:27:29;99089.94;;;-7.12;100.00
46876;BME280;32866;50.160;14.768;2022-11-20T00:29:54;99090.88;;;-7.29;100.00
46876;BME280;32866;50.160;14.768;2022-11-20T00:32:20;99092.28;;;-7.11;100.00
46876;BME280;32866;50.160;14.768;2022-11-20T00:34:45;99054.78;;;-7.39;100.00
46876;BME280;32866;50.160;14.768;2022-11-20T00:37:11;99091.63;;;-7.07;100.00
46876;BME280;32866;50.160;14.768;2022-11-20T00:39:36;99086.47;;;-7.25;100.00
46876;BME280;32866;50.160;14.768;2022-11-20T00:42:01;99085.16;;;-7.19;100.00
46876;BME280;32866;50.160;14.768;2022-11-20T00:44:26;99080.91;;;-7.32;100.00
46876;BME280;32866;50.160;14.768;2022-11-20T00:46:52;99087.75;;;-7.31;100.00
46876;BME280;32866;50.160;14.768;2022-11-20T00:49:17;99048.00;;;-7.78;100.00
46876;BME280;32866;50.160;14.768;2022-11-20T00:51:42;99089.75;;;-7.49;100.00
46876;BME280;32866;50.160;14.768;2022-11-20T00:54:07;99086.47;;;-7.46;100.00
46876;BME280;32866;50.160;14.768;2022-11-20T00:56:33;99089.25;;;-7.42;100.00
46876;BME280;32866;50.160;14.768;2022-11-20T00:59:00;99078.53;;;-7.55;100.00
46876;BME280;32866;50.160;14.768;2022-11-20T01:01:26;99049.75;;;-7.83;100.00
46876;BME280;32866;50.160;14.768;2022-11-20T01:03:55;99089.81;;;-7.58;100.00
46876;BME280;32866;50.160;14.768;2022-11-20T01:06:29;99071.88;;;-7.91;100.00
46876;BME280;32866;50.160;14.768;2022-11-20T01:08:57;99100.41;;;-7.70;100.00
46876;BME280;32866;50.160;14.768;2022-11-20T01:11:31;99105.09;;;-7.67;100.00
46876;BME280;32866;50.160;14.768;2022-11-20T01:13:58;99104.25;;;-7.59;100.00
46876;BME280;32866;50.160;14.768;2022-11-20T01:16:35;99095.84;;;-7.70;100.00
46876;BME280;32866;50.160;14.768;2022-11-20T01:19:03;99096.47;;;-7.64;100.00
46876;BME280;32866;50.160;14.768;2022-11-20T01:21:32;99110.47;;;-7.55;100.00
46876;BME280;32866;50.160;14.768;2022-11-20T01:23:59;99107.13;;;-7.43;100.00
46876;BME280;32866;50.160;14.768;2022-11-20T01:26:27;99107.13;;;-7.22;100.00
46876;BME280;32866;50.160;14.768;2022-11-20T01:31:33;99105.63;;;-7.32;100.00
46876;BME280;32866;50.160;14.768;2022-11-20T01:34:04;99106.84;;;-7.29;100.00
46876;BME280;32866;50.160;14.768;2022-11-20T01:36:31;99103.34;;;-7.21;100.00
46876;BME280;32866;50.160;14.768;2022-11-20T01:38:59;99109.44;;;-6.99;100.00
46876;BME280;32866;50.160;14.768;2022-11-20T01:41:27;99083.19;;;-7.10;100.00
46876;BME280;32866;50.160;14.768;2022-11-20T01:44:19;99098.56;;;-6.94;100.00
46876;BME280;32866;50.160;14.768;2022-11-20T01:46:59;99047.72;;;-7.22;100.00
46876;BME280;32866;50.160;14.768;2022-11-20T01:49:39;99090.31;;;-6.80;100.00
46876;BME280;32866;50.160;14.768;2022-11-20T01:52:18;99059.31;;;-7.18;100.00
46876;BME280;32866;50.160;14.768;2022-11-20T01:54:50;99080.84;;;-6.90;100.00
46876;BME280;32866;50.160;14.768;2022-11-20T01:57:18;99074.97;;;-6.83;100.00
46876;BME280;32866;50.160;14.768;2022-11-20T02:00:11;99075.75;;;-6.83;100.00
46876;BME280;32866;50.160;14.768;2022-11-20T02:02:37;99073.91;;;-7.03;100.00
46876;BME280;32866;50.160;14.768;2022-11-20T02:05:14;99076.31;;;-7.11;100.00
46876;BME280;32866;50.160;14.768;2022-11-20T02:07:43;99069.69;;;-7.04;100.00
46876;BME280;32866;50.160;14.768;2022-11-20T02:10:08;99018.28;;;-7.38;100.00
46876;BME280;32866;50.160;14.768;2022-11-20T02:12:34;99061.00;;;-7.14;100.00
46876;BME280;32866;50.160;14.768;2022-11-20T02:15:18;99041.19;;;-7.25;100.00
46876;BME280;32866;50.160;14.768;2022-11-20T02:17:43;99061.88;;;-7.10;100.00
46876;BME280;32866;50.160;14.768;2022-11-20T02:20:08;99030.03;;;-7.39;100.00
46876;BME280;32866;50.160;14.768;2022-11-20T02:22:36;99063.47;;;-7.09;100.00
46876;BME280;32866;50.160;14.768;2022-11-20T02:25:02;99025.94;;;-7.37;100.00
46876;BME280;32866;50.160;14.768;2022-11-20T02:27:29;99052.81;;;-7.09;100.00
46876;BME280;32866;50.160;14.768;2022-11-20T02:29:58;99062.75;;;-7.18;100.00
46876;BME280;32866;50.160;14.768;2022-11-20T02:32:31;99055.66;;;-7.14;100.00
46876;BME280;32866;50.160;14.768;2022-11-20T02:34:57;99042.44;;;-7.43;100.00
46876;BME280;32866;50.160;14.768;2022-11-20T02:37:23;99057.63;;;-7.23;100.00
46876;BME280;32866;50.160;14.768;2022-11-20T02:39:51;99055.81;;;-7.31;100.00
46876;BME280;32866;50.160;14.768;2022-11-20T02:42:17;99052.81;;;-7.30;100.00
46876;BME280;32866;50.160;14.768;2022-11-20T02:44:42;99053.06;;;-7.22;100.00
46876;BME280;32866;50.160;14.768;2022-11-20T02:47:08;99028.84;;;-7.51;100.00
46876;BME280;32866;50.160;14.768;2022-11-20T02:49:33;99065.28;;;-7.42;100.00
46876;BME280;32866;50.160;14.768;2022-11-20T02:51:59;99061.41;;;-7.45;100.00
46876;BME280;32866;50.160;14.768;2022-11-20T02:54:24;99059.06;;;-7.47;100.00
46876;BME280;32866;50.160;14.768;2022-11-20T02:56:50;99044.13;;;-7.60;100.00
46876;BME280;32866;50.160;14.768;2022-11-20T02:59:15;99049.84;;;-7.49;100.00
46876;BME280;32866;50.160;14.768;2022-11-20T03:01:40;99057.88;;;-7.58;100.00
46876;BME280;32866;50.160;14.768;2022-11-20T03:04:05;99043.09;;;-7.47;100.00
46876;BME280;32866;50.160;14.768;2022-11-20T03:06:31;99041.28;;;-7.55;100.00
46876;BME280;32866;50.160;14.768;2022-11-20T03:08:56;99053.75;;;-7.47;100.00
46876;BME280;32866;50.160;14.768;2022-11-20T03:11:22;99048.81;;;-7.57;100.00
46876;BME280;32866;50.160;14.768;2022-11-20T03:13:47;99059.47;;;-7.57;100.00
46876;BME280;32866;50.160;14.768;2022-11-20T03:16:17;99050.09;;;-7.63;100.00
46876;BME280;32866;50.160;14.768;2022-11-20T03:18:44;99049.00;;;-7.62;100.00
46876;BME280;32866;50.160;14.768;2022-11-20T03:21:09;99060.09;;;-7.60;100.00
46876;BME280;32866;50.160;14.768;2022-11-20T03:23:35;99017.13;;;-7.92;100.00
46876;BME280;32866;50.160;14.768;2022-11-20T03:26:14;99073.75;;;-7.40;100.00
46876;BME280;32866;50.160;14.768;2022-11-20T03:28:40;99063.66;;;-7.14;100.00
46876;BME280;32866;50.160;14.768;2022-11-20T03:31:11;99030.03;;;-7.39;100.00
46876;BME280;32866;50.160;14.768;2022-11-20T03:33:38;99053.38;;;-7.03;100.00
46876;BME280;32866;50.160;14.768;2022-11-20T03:36:05;99069.78;;;-7.01;100.00
46876;BME280;32866;50.160;14.768;2022-11-20T03:38:31;99080.00;;;-7.03;100.00
46876;BME280;32866;50.160;14.768;2022-11-20T03:41:00;99066.56;;;-7.06;100.00
46876;BME280;32866;50.160;14.768;2022-11-20T03:43:26;99064.34;;;-7.04;100.00
46876;BME280;32866;50.160;14.768;2022-11-20T03:45:52;99073.97;;;-7.12;100.00
46876;BME280;32866;50.160;14.768;2022-11-20T03:48:17;99063.88;;;-7.19;100.00
46876;BME280;32866;50.160;14.768;2022-11-20T03:50:42;99065.28;;;-7.21;100.00
46876;BME280;32866;50.160;14.768;2022-11-20T03:53:07;99070.72;;;-7.18;100.00
46876;BME280;32866;50.160;14.768;2022-11-20T03:55:32;99078.91;;;-7.23;100.00
46876;BME280;32866;50.160;14.768;2022-11-20T03:57:58;99082.31;;;-7.14;100.00
46876;BME280;32866;50.160;14.768;2022-11-20T04:00:23;99078.22;;;-6.99;100.00
46876;BME280;32866;50.160;14.768;2022-11-20T04:02:48;99071.16;;;-6.95;100.00
46876;BME280;32866;50.160;14.768;2022-11-20T04:05:13;99077.47;;;-6.99;100.00
46876;BME280;32866;50.160;14.768;2022-11-20T04:07:39;99036.50;;;-7.28;100.00
46876;BME280;32866;50.160;14.768;2022-11-20T04:10:04;99072.53;;;-7.10;100.00
46876;BME280;32866;50.160;14.768;2022-11-20T04:12:32;99065.13;;;-7.04;100.00
46876;BME280;32866;50.160;14.768;2022-11-20T04:14:57;99035.94;;;-7.34;100.00
46876;BME280;32866;50.160;14.768;2022-11-20T04:17:22;99061.38;;;-7.24;100.00
46876;BME280;32866;50.160;14.768;2022-11-20T04:19:47;99061.38;;;-7.24;100.00
46876;BME280;32866;50.160;14.768;2022-11-20T04:22:13;99066.06;;;-7.21;100.00
46876;BME280;32866;50.160;14.768;2022-11-20T04:24:38;99067.56;;;-6.99;100.00
46876;BME280;32866;50.160;14.768;2022-11-20T04:27:03;99065.91;;;-7.03;100.00
46876;BME280;32866;50.160;14.768;2022-11-20T04:29:28;99043.97;;;-7.21;100.00
46876;BME280;32866;50.160;14.768;2022-11-20T04:31:54;99067.53;;;-6.78;100.00
46876;BME280;32866;50.160;14.768;2022-11-20T04:34:19;99013.28;;;-7.06;100.00
46876;BME280;32866;50.160;14.768;2022-11-20T04:36:44;99067.13;;;-6.67;100.00
46876;BME280;32866;50.160;14.768;2022-11-20T04:39:13;99033.28;;;-7.00;100.00
46876;BME280;32866;50.160;14.768;2022-11-20T04:41:40;99063.47;;;-6.63;100.00
46876;BME280;32866;50.160;14.768;2022-11-20T04:44:06;99056.38;;;-6.46;100.00
46876;BME280;32866;50.160;14.768;2022-11-20T04:46:37;99068.50;;;-6.24;100.00
46876;BME280;32866;50.160;14.768;2022-11-20T04:49:03;99050.94;;;-6.25;100.00
46876;BME280;32866;50.160;14.768;2022-11-20T04:51:29;99061.19;;;-6.03;100.00
46876;BME280;32866;50.160;14.768;2022-11-20T04:53:54;99030.03;;;-6.36;100.00
46876;BME280;32866;50.160;14.768;2022-11-20T04:56:19;99059.63;;;-6.16;100.00
46876;BME280;32866;50.160;14.768;2022-11-20T04:58:44;99059.63;;;-6.16;100.00
46876;BME280;32866;50.160;14.768;2022-11-20T05:01:14;99051.28;;;-6.14;100.00
46876;BME280;32866;50.160;14.768;2022-11-20T05:03:41;99048.44;;;-5.93;100.00
46876;BME280;32866;50.160;14.768;2022-11-20T05:06:07;99012.38;;;-6.28;100.00
46876;BME280;32866;50.160;14.768;2022-11-20T05:08:32;99034.06;;;-6.05;100.00
46876;BME280;32866;50.160;14.768;2022-11-20T05:11:02;99033.91;;;-6.08;100.00
46876;BME280;32866;50.160;14.768;2022-11-20T05:13:28;99030.69;;;-6.02;100.00
46876;BME280;32866;50.160;14.768;2022-11-20T05:15:53;99032.06;;;-6.08;100.00
46876;BME280;32866;50.160;14.768;2022-11-20T05:18:19;98999.41;;;-6.42;100.00
46876;BME280;32866;50.160;14.768;2022-11-20T05:20:44;99022.16;;;-6.07;100.00
46876;BME280;32866;50.160;14.768;2022-11-20T05:23:09;98973.47;;;-6.29;100.00
46876;BME280;32866;50.160;14.768;2022-11-20T05:25:34;99018.84;;;-5.76;100.00
46876;BME280;32866;50.160;14.768;2022-11-20T05:28:00;99021.63;;;-5.72;100.00
46876;BME280;32866;50.160;14.768;2022-11-20T05:30:25;99018.66;;;-5.96;100.00
46876;BME280;32866;50.160;14.768;2022-11-20T05:32:50;98995.81;;;-6.34;100.00
46876;BME280;32866;50.160;14.768;2022-11-20T05:35:15;99026.66;;;-5.96;100.00
46876;BME280;32866;50.160;14.768;2022-11-20T05:37:41;98996.50;;;-6.24;100.00
46876;BME280;32866;50.160;14.768;2022-11-20T05:40:06;99030.66;;;-5.89;100.00
46876;BME280;32866;50.160;14.768;2022-11-20T05:42:32;99004.38;;;-6.03;100.00
46876;BME280;32866;50.160;14.768;2022-11-20T05:44:57;99029.50;;;-5.64;100.00
46876;BME280;32866;50.160;14.768;2022-11-20T05:47:23;99031.28;;;-5.68;100.00
46876;BME280;32866;50.160;14.768;2022-11-20T05:49:48;99021.09;;;-5.78;100.00
46876;BME280;32866;50.160;14.768;2022-11-20T05:52:13;99020.63;;;-5.68;100.00
46876;BME280;32866;50.160;14.768;2022-11-20T05:54:39;98960.88;;;-6.04;100.00
46876;BME280;32866;50.160;14.768;2022-11-20T05:57:04;99017.06;;;-5.72;100.00
46876;BME280;32866;50.160;14.768;2022-11-20T05:59:29;99023.53;;;-5.73;100.00
46876;BME280;32866;50.160;14.768;2022-11-20T06:01:54;99016.47;;;-5.65;100.00
46876;BME280;32866;50.160;14.768;2022-11-20T06:04:20;98998.25;;;-5.75;100.00
46876;BME280;32866;50.160;14.768;2022-11-20T06:06:45;99005.78;;;-5.65;100.00
46876;BME280;32866;50.160;14.768;2022-11-20T06:09:10;99022.06;;;-5.70;100.00
46876;BME280;32866;50.160;14.768;2022-11-20T06:11:36;99010.59;;;-5.71;100.00
46876;BME280;32866;50.160;14.768;2022-11-20T06:14:01;99010.59;;;-5.71;100.00
46876;BME280;32866;50.160;14.768;2022-11-20T06:16:26;98965.22;;;-5.99;100.00
46876;BME280;32866;50.160;14.768;2022-11-20T06:18:51;99018.28;;;-5.69;100.00
46876;BME280;32866;50.160;14.768;2022-11-20T06:21:20;98997.16;;;-5.74;100.00
46876;BME280;32866;50.160;14.768;2022-11-20T06:23:46;99008.03;;;-5.67;100.00
46876;BME280;32866;50.160;14.768;2022-11-20T06:26:12;99006.13;;;-5.67;100.00
46876;BME280;32866;50.160;14.768;2022-11-20T06:28:38;98997.97;;;-5.86;100.00
46876;BME280;32866;50.160;14.768;2022-11-20T06:31:05;99014.38;;;-5.72;100.00
46876;BME280;32866;50.160;14.768;2022-11-20T06:33:30;98986.59;;;-5.83;100.00
46876;BME280;32866;50.160;14.768;2022-11-20T06:35:56;99022.91;;;-5.54;100.00
46876;BME280;32866;50.160;14.768;2022-11-20T06:38:22;99008.03;;;-5.67;100.00
46876;BME280;32866;50.160;14.768;2022-11-20T06:40:47;99017.72;;;-5.63;100.00
46876;BME280;32866;50.160;14.768;2022-11-20T06:43:12;99014.00;;;-5.58;100.00
46876;BME280;32866;50.160;14.768;2022-11-20T06:45:38;99009.88;;;-5.55;100.00
46876;BME280;32866;50.160;14.768;2022-11-20T06:48:03;99007.50;;;-5.45;100.00
46876;BME280;32866;50.160;14.768;2022-11-20T06:50:29;99009.81;;;-5.31;100.00
46876;BME280;32866;50.160;14.768;2022-11-20T06:52:54;99006.16;;;-5.38;100.00
46876;BME280;32866;50.160;14.768;2022-11-20T06:55:19;99015.09;;;-5.18;100.00
46876;BME280;32866;50.160;14.768;2022-11-20T06:57:45;99026.28;;;-5.29;100.00
46876;BME280;32866;50.160;14.768;2022-11-20T07:00:10;99025.00;;;-5.19;100.00
46876;BME280;32866;50.160;14.768;2022-11-20T07:02:36;99034.28;;;-5.29;100.00
46876;BME280;32866;50.160;14.768;2022-11-20T07:05:01;99026.50;;;-5.34;100.00
46876;BME280;32866;50.160;14.768;2022-11-20T07:07:26;99015.91;;;-5.02;100.00
46876;BME280;32866;50.160;14.768;2022-11-20T07:09:52;98991.25;;;-5.39;100.00
46876;BME280;32866;50.160;14.768;2022-11-20T07:12:17;99019.00;;;-5.16;100.00
46876;BME280;32866;50.160;14.768;2022-11-20T07:14:42;98987.69;;;-5.44;100.00
46876;BME280;32866;50.160;14.768;2022-11-20T07:17:08;99005.34;;;-4.82;100.00
46876;BME280;32866;50.160;14.768;2022-11-20T07:19:33;99002.41;;;-4.77;100.00
46876;BME280;32866;50.160;14.768;2022-11-20T07:21:58;99005.75;;;-4.64;100.00
46876;BME280;32866;50.160;14.768;2022-11-20T07:24:23;99003.63;;;-4.59;100.00
46876;BME280;32866;50.160;14.768;2022-11-20T07:26:49;98991.28;;;-4.63;100.00
46876;BME280;32866;50.160;14.768;2022-11-20T07:29:15;98940.03;;;-4.81;100.00
46876;BME280;32866;50.160;14.768;2022-11-20T07:31:42;98992.25;;;-4.56;100.00
46876;BME280;32866;50.160;14.768;2022-11-20T07:34:07;98984.63;;;-4.54;100.00
46876;BME280;32866;50.160;14.768;2022-11-20T07:36:32;98997.41;;;-4.47;100.00
46876;BME280;32866;50.160;14.768;2022-11-20T07:38:57;98967.44;;;-4.53;100.00
46876;BME280;32866;50.160;14.768;2022-11-20T07:41:23;98995.22;;;-4.25;100.00
46876;BME280;32866;50.160;14.768;2022-11-20T07:43:48;98954.78;;;-4.56;100.00
46876;BME280;32866;50.160;14.768;2022-11-20T07:46:13;98957.91;;;-4.86;100.00
46876;BME280;32866;50.160;14.768;2022-11-20T07:48:39;99011.78;;;-4.36;100.00
46876;BME280;32866;50.160;14.768;2022-11-20T07:51:05;99018.53;;;-4.26;100.00
46876;BME280;32866;50.160;14.768;2022-11-20T07:53:30;99016.03;;;-4.35;100.00
46876;BME280;32866;50.160;14.768;2022-11-20T07:56:00;99009.63;;;-4.46;100.00
46876;BME280;32866;50.160;14.768;2022-11-20T07:58:26;98972.28;;;-4.58;100.00
46876;BME280;32866;50.160;14.768;2022-11-20T08:00:51;98977.38;;;-4.53;100.00
46876;BME280;32866;50.160;14.768;2022-11-20T08:03:16;99018.78;;;-4.31;100.00
46876;BME280;32866;50.160;14.768;2022-11-20T08:05:42;99019.69;;;-4.07;100.00
46876;BME280;32866;50.160;14.768;2022-11-20T08:08:07;98977.81;;;-4.35;100.00
46876;BME280;32866;50.160;14.768;2022-11-20T08:10:33;99009.13;;;-3.84;100.00
46876;BME280;32866;50.160;14.768;2022-11-20T08:12:58;98975.22;;;-3.96;100.00
46876;BME280;32866;50.160;14.768;2022-11-20T08:15:48;98999.47;;;-3.69;100.00
46876;BME280;32866;50.160;14.768;2022-11-20T08:18:13;99000.94;;;-3.72;100.00
46876;BME280;32866;50.160;14.768;2022-11-20T08:20:39;99005.75;;;-3.81;100.00
46876;BME280;32866;50.160;14.768;2022-11-20T08:23:05;99001.69;;;-3.75;100.00
46876;BME280;32866;50.160;14.768;2022-11-20T08:25:32;99002.50;;;-3.71;100.00
46876;BME280;32866;50.160;14.768;2022-11-20T08:27:58;98999.63;;;-3.62;100.00
46876;BME280;32866;50.160;14.768;2022-11-20T08:30:24;99007.59;;;-3.66;100.00
46876;BME280;32866;50.160;14.768;2022-11-20T08:32:50;98990.72;;;-3.86;100.00
46876;BME280;32866;50.160;14.768;2022-11-20T08:35:15;99007.09;;;-3.71;100.00
46876;BME280;32866;50.160;14.768;2022-11-20T08:37:40;99010.75;;;-3.80;100.00
46876;BME280;32866;50.160;14.768;2022-11-20T08:40:11;98985.41;;;-4.02;100.00
46876;BME280;32866;50.160;14.768;2022-11-20T08:42:36;98956.56;;;-3.53;100.00
46876;BME280;32866;50.160;14.768;2022-11-20T08:45:02;98955.19;;;-3.24;100.00
46876;BME280;32866;50.160;14.768;2022-11-20T08:47:28;98967.06;;;-3.02;100.00
46876;BME280;32866;50.160;14.768;2022-11-20T08:49:53;98963.97;;;-2.81;100.00
46876;BME280;32866;50.160;14.768;2022-11-20T08:52:18;98981.72;;;-2.96;100.00
46876;BME280;32866;50.160;14.768;2022-11-20T08:54:44;98947.22;;;-2.97;100.00
46876;BME280;32866;50.160;14.768;2022-11-20T08:57:09;98924.41;;;-3.11;100.00
46876;BME280;32866;50.160;14.768;2022-11-20T08:59:34;98961.28;;;-2.81;100.00
46876;BME280;32866;50.160;14.768;2022-11-20T09:02:00;98963.66;;;-2.99;100.00
46876;BME280;32866;50.160;14.768;2022-11-20T09:04:25;98958.03;;;-3.13;100.00
46876;BME280;32866;50.160;14.768;2022-11-20T09:06:50;98928.69;;;-3.29;100.00
46876;BME280;32866;50.160;14.768;2022-11-20T09:09:17;98961.28;;;-2.81;100.00
46876;BME280;32866;50.160;14.768;2022-11-20T09:11:43;98960.69;;;-2.71;100.00
46876;BME280;32866;50.160;14.768;2022-11-20T09:14:08;98946.41;;;-3.02;100.00
46876;BME280;32866;50.160;14.768;2022-11-20T09:16:33;98926.94;;;-2.95;100.00
46876;BME280;32866;50.160;14.768;2022-11-20T09:18:59;98962.72;;;-2.87;100.00
46876;BME280;32866;50.160;14.768;2022-11-20T09:21:24;98954.47;;;-2.75;100.00
46876;BME280;32866;50.160;14.768;2022-11-20T09:23:50;98919.84;;;-3.07;100.00
46876;BME280;32866;50.160;14.768;2022-11-20T09:26:15;98958.19;;;-3.06;100.00
46876;BME280;32866;50.160;14.768;2022-11-20T09:28:41;98973.56;;;-2.80;100.00
46876;BME280;32866;50.160;14.768;2022-11-20T09:31:07;98979.72;;;-2.80;100.00
46876;BME280;32866;50.160;14.768;2022-11-20T09:33:33;98976.53;;;-2.85;100.00
46876;BME280;32866;50.160;14.768;2022-11-20T09:35:58;98974.56;;;-2.88;100.00
46876;BME280;32866;50.160;14.768;2022-11-20T09:38:24;98950.97;;;-2.79;100.00
46876;BME280;32866;50.160;14.768;2022-11-20T09:41:03;98971.66;;;-3.03;100.00
46876;BME280;32866;50.160;14.768;2022-11-20T09:43:51;98963.16;;;-3.28;100.00
46876;BME280;32866;50.160;14.768;2022-11-20T09:47:11;98954.16;;;-2.96;100.00
46876;BME280;32866;50.160;14.768;2022-11-20T09:50:01;98961.25;;;-2.85;100.00
46876;BME280;32866;50.160;14.768;2022-11-20T09:55:10;98925.28;;;-3.26;100.00
46876;BME280;32866;50.160;14.768;2022-11-20T09:57:39;98948.22;;;-3.06;100.00
46876;BME280;32866;50.160;14.768;2022-11-20T10:00:10;98944.84;;;-3.03;100.00
46876;BME280;32866;50.160;14.768;2022-11-20T10:02:42;98918.78;;;-3.02;100.00
46876;BME280;32866;50.160;14.768;2022-11-20T10:05:50;98926.88;;;-2.75;100.00
46876;BME280;32866;50.160;14.768;2022-11-20T10:08:28;98915.03;;;-2.74;100.00
46876;BME280;32866;50.160;14.768;2022-11-20T10:11:29;98920.97;;;-2.62;100.00
46876;BME280;32866;50.160;14.768;2022-11-20T10:14:23;98918.94;;;-2.68;100.00
46876;BME280;32866;50.160;14.768;2022-11-20T10:25:15;98914.03;;;-2.66;100.00
46876;BME280;32866;50.160;14.768;2022-11-20T10:30:14;98883.09;;;-2.83;100.00
46876;BME280;32866;50.160;14.768;2022-11-20T10:32:43;98907.63;;;-2.58;100.00
46876;BME280;32866;50.160;14.768;2022-11-20T10:35:28;98913.94;;;-2.43;100.00
46876;BME280;32866;50.160;14.768;2022-11-20T10:38:00;98892.56;;;-2.09;100.00
46876;BME280;32866;50.160;14.768;2022-11-20T10:40:38;98894.81;;;-2.11;100.00
46876;BME280;32866;50.160;14.768;2022-11-20T10:43:35;98887.63;;;-2.03;100.00
46876;BME280;32866;50.160;14.768;2022-11-20T10:46:12;98901.56;;;-1.94;100.00
46876;BME280;32866;50.160;14.768;2022-11-20T10:48:38;98912.09;;;-2.12;100.00
46876;BME280;32866;50.160;14.768;2022-11-20T10:54:19;98891.84;;;-2.06;100.00
46876;BME280;32866;50.160;14.768;2022-11-20T10:56:51;98885.09;;;-1.93;100.00
46876;BME280;32866;50.160;14.768;2022-11-20T10:59:33;98884.63;;;-1.98;100.00
46876;BME280;32866;50.160;14.768;2022-11-20T11:02:00;98885.56;;;-2.17;100.00
46876;BME280;32866;50.160;14.768;2022-11-20T11:06:58;98887.16;;;-2.13;100.00
46876;BME280;32866;50.160;14.768;2022-11-20T11:09:35;98884.94;;;-2.34;100.00
46876;BME280;32866;50.160;14.768;2022-11-20T11:12:07;98882.81;;;-2.51;100.00
46876;BME280;32866;50.160;14.768;2022-11-20T11:14:45;98855.81;;;-2.62;100.00
46876;BME280;32866;50.160;14.768;2022-11-20T11:17:26;98882.41;;;-2.50;100.00
46876;BME280;32866;50.160;14.768;2022-11-20T11:22:48;98853.56;;;-2.56;100.00
46876;BME280;32866;50.160;14.768;2022-11-20T11:25:31;98873.19;;;-2.26;100.00
46876;BME280;32866;50.160;14.768;2022-11-20T11:30:44;98860.41;;;-2.02;100.00
46876;BME280;32866;50.160;14.768;2022-11-20T11:33:18;98875.72;;;-1.72;100.00
46876;BME280;32866;50.160;14.768;2022-11-20T11:35:47;98854.56;;;-1.36;100.00
46876;BME280;32866;50.160;14.768;2022-11-20T11:38:16;98839.78;;;-1.16;100.00
46876;BME280;32866;50.160;14.768;2022-11-20T11:40:43;98847.66;;;-0.89;100.00
46876;BME280;32866;50.160;14.768;2022-11-20T11:43:19;98828.25;;;-1.13;100.00
46876;BME280;32866;50.160;14.768;2022-11-20T11:46:20;98866.91;;;-0.87;100.00
46876;BME280;32866;50.160;14.768;2022-11-20T11:49:20;98867.66;;;-0.90;100.00
46876;BME280;32866;50.160;14.768;2022-11-20T11:54:26;98853.28;;;-1.08;100.00
46876;BME280;32866;50.160;14.768;2022-11-20T11:56:54;98851.47;;;-0.94;100.00
46876;BME280;32866;50.160;14.768;2022-11-20T11:59:33;98844.59;;;-0.87;100.00
46876;BME280;32866;50.160;14.768;2022-11-20T12:02:15;98838.47;;;-0.84;100.00
46876;BME280;32866;50.160;14.768;2022-11-20T12:04:54;98832.84;;;-0.61;100.00
46876;BME280;32866;50.160;14.768;2022-11-20T12:07:38;98830.84;;;-0.79;100.00
46876;BME280;32866;50.160;14.768;2022-11-20T12:10:08;98838.41;;;-0.95;100.00
46876;BME280;32866;50.160;14.768;2022-11-20T12:12:43;98828.00;;;-1.00;100.00
46876;BME280;32866;50.160;14.768;2022-11-20T12:15:19;98824.41;;;-1.19;100.00
46876;BME280;32866;50.160;14.768;2022-11-20T12:17:47;98834.41;;;-1.16;100.00
46876;BME280;32866;50.160;14.768;2022-11-20T12:20:13;98837.97;;;-1.01;100.00
46876;BME280;32866;50.160;14.768;2022-11-20T12:22:47;98827.38;;;-1.27;100.00
46876;BME280;32866;50.160;14.768;2022-11-20T12:25:27;98837.31;;;-1.35;100.00
46876;BME280;32866;50.160;14.768;2022-11-20T12:30:41;98835.44;;;-1.72;100.00
46876;BME280;32866;50.160;14.768;2022-11-20T12:36:06;98825.97;;;-1.59;100.00
46876;BME280;32866;50.160;14.768;2022-11-20T12:38:48;98829.50;;;-1.47;100.00
46876;BME280;32866;50.160;14.768;2022-11-20T12:41:21;98813.31;;;-1.55;100.00
46876;BME280;32866;50.160;14.768;2022-11-20T12:44:27;98799.53;;;-1.01;100.00
46876;BME280;32866;50.160;14.768;2022-11-20T12:52:48;98766.84;;;-1.07;100.00
46876;BME280;32866;50.160;14.768;2022-11-20T12:55:47;98785.47;;;-0.77;100.00
46876;BME280;32866;50.160;14.768;2022-11-20T13:01:24;98786.19;;;-0.87;100.00
46876;BME280;32866;50.160;14.768;2022-11-20T13:07:02;98764.50;;;-1.16;100.00
46876;BME280;32866;50.160;14.768;2022-11-20T13:09:28;98789.91;;;-1.02;100.00
46876;BME280;32866;50.160;14.768;2022-11-20T13:17:36;98791.06;;;-1.55;100.00
46876;BME280;32866;50.160;14.768;2022-11-20T13:20:05;98792.41;;;-1.31;100.00
46876;BME280;32866;50.160;14.768;2022-11-20T13:22:53;98784.25;;;-1.42;100.00
46876;BME280;32866;50.160;14.768;2022-11-20T13:25:33;98782.84;;;-1.25;100.00
46876;BME280;32866;50.160;14.768;2022-11-20T13:28:03;98791.88;;;-1.47;100.00
46876;BME280;32866;50.160;14.768;2022-11-20T13:30:32;98783.03;;;-1.52;100.00
46876;BME280;32866;50.160;14.768;2022-11-20T13:33:07;98778.22;;;-1.28;100.00
46876;BME280;32866;50.160;14.768;2022-11-20T13:35:34;98768.63;;;-1.29;100.00
46876;BME280;32866;50.160;14.768;2022-11-20T13:40:30;98758.88;;;-1.44;100.00
46876;BME280;32866;50.160;14.768;2022-11-20T13:43:00;98763.16;;;-1.40;100.00
46876;BME280;32866;50.160;14.768;2022-11-20T13:45:29;98758.78;;;-1.59;100.00